Almanor, California
Current Conditions -  °F | °C
As of 3:55 PM on Tuesday 25 Nov 2014 (Local Time) from KCIC Reporting Station
Scattered Clouds Scattered Clouds  
Wind Chill: 63°   Ceiling: Unl
Heat Index: 63°   Visibility: 80mi
Dew Point: 45°   Wind: 7mph
Humidity: 52%   Direction: 310°NW
Pressure: 30.39"   Gusts: NA
Location:  40.1766°N, 120.882°W
Report Text: KCIC 252355Z 31006KT 80SM SCT200 17/07 A3039
Loading
Personal Weather Stations






























Interactive Weather Map New forecast layout! Learn more

10-Day Weather Forecast

Advertisements
Track Severe Weather on mobile